createdAt,value
2022-09-26T00:01:42.959Z,85.71
2022-09-26T00:04:22.978Z,85.60
2022-09-26T00:06:53.932Z,85.60
2022-09-26T00:09:24.865Z,85.68
2022-09-26T00:11:53.409Z,85.76
2022-09-26T00:14:24.890Z,85.79
2022-09-26T00:16:53.873Z,85.79
2022-09-26T00:19:22.904Z,85.94
2022-09-26T00:21:51.232Z,86.00
2022-09-26T00:24:19.769Z,86.13
2022-09-26T00:26:47.908Z,86.06
2022-09-26T00:29:16.409Z,86.02
2022-09-26T00:31:46.266Z,86.08
2022-09-26T00:34:16.966Z,86.13
2022-09-26T00:36:45.231Z,86.07
2022-09-26T00:39:15.609Z,85.99
2022-09-26T00:41:45.074Z,86.03
2022-09-26T00:44:54.809Z,86.08
2022-09-26T00:47:34.647Z,86.04
2022-09-26T00:50:08.378Z,86.00
2022-09-26T00:52:49.209Z,86.00
2022-09-26T00:55:21.963Z,86.13
2022-09-26T00:57:56.732Z,86.06
2022-09-26T01:00:25.161Z,86.22
2022-09-26T01:02:54.270Z,86.33
2022-09-26T01:05:24.249Z,86.48
2022-09-26T01:07:55.138Z,86.35
2022-09-26T01:10:24.829Z,86.38
2022-09-26T01:12:54.111Z,86.44
2022-09-26T01:15:26.214Z,86.48
2022-09-26T01:17:56.779Z,86.61
2022-09-26T01:20:36.672Z,86.69
2022-09-26T01:23:40.364Z,86.52
2022-09-26T01:26:33.299Z,86.64
2022-09-26T01:29:29.351Z,86.59
2022-09-26T01:32:36.995Z,86.62
2022-09-26T01:35:21.324Z,86.69
2022-09-26T01:38:07.918Z,86.66
2022-09-26T01:40:57.384Z,86.64
2022-09-26T01:43:40.296Z,86.81
2022-09-26T01:46:36.239Z,86.70
2022-09-26T01:49:20.969Z,86.66
2022-09-26T01:51:52.088Z,86.80
2022-09-26T01:54:24.901Z,86.84
2022-09-26T01:56:57.581Z,86.80
2022-09-26T01:59:42.289Z,86.75
2022-09-26T02:02:19.606Z,86.84
2022-09-26T02:04:53.616Z,86.88
2022-09-26T02:07:43.936Z,86.97
2022-09-26T02:10:22.099Z,87.00
2022-09-26T02:12:59.691Z,86.83
2022-09-26T02:15:34.830Z,86.94
2022-09-26T02:18:17.469Z,87.10
2022-09-26T02:20:58.437Z,87.05
2022-09-26T02:23:26.524Z,87.20
2022-09-26T02:25:55.227Z,87.26
2022-09-26T02:28:23.485Z,87.30
2022-09-26T02:30:54.581Z,87.20
2022-09-26T02:33:24.116Z,87.37
2022-09-26T02:35:55.365Z,87.41
2022-09-26T02:38:31.933Z,87.50
2022-09-26T02:41:22.623Z,87.56
2022-09-26T02:44:11.835Z,87.53
2022-09-26T02:47:00.219Z,87.56
2022-09-26T02:49:34.360Z,87.71
2022-09-26T02:52:36.092Z,87.78
2022-09-26T02:55:26.842Z,87.73
2022-09-26T02:58:04.283Z,87.76
2022-09-26T03:01:11.030Z,87.85
2022-09-26T03:04:15.050Z,87.85
2022-09-26T03:06:46.883Z,87.96
2022-09-26T03:09:18.077Z,88.03
2022-09-26T03:11:48.236Z,87.99
2022-09-26T03:14:18.262Z,88.15
2022-09-26T03:16:49.798Z,88.30
2022-09-26T03:19:36.448Z,88.00
2022-09-26T03:22:04.739Z,88.20
2022-09-26T03:24:36.423Z,88.06
2022-09-26T03:27:05.993Z,88.15
2022-09-26T03:29:36.804Z,88.17
2022-09-26T03:32:06.908Z,88.20
2022-09-26T03:34:35.230Z,88.56
2022-09-26T03:37:03.249Z,88.26
2022-09-26T03:39:31.388Z,88.20
2022-09-26T03:42:02.887Z,88.08
2022-09-26T03:44:32.521Z,88.16
2022-09-26T03:47:19.457Z,88.01
2022-09-26T03:49:51.701Z,88.31
2022-09-26T03:52:20.165Z,88.19
2022-09-26T03:54:49.827Z,88.45
2022-09-26T03:57:18.163Z,88.41
2022-09-26T03:59:55.811Z,88.50
2022-09-26T04:02:25.330Z,88.51
2022-09-26T04:04:59.834Z,88.50
2022-09-26T04:07:27.942Z,88.66
2022-09-26T04:09:56.022Z,88.62
2022-09-26T04:12:24.011Z,88.58
2022-09-26T04:14:54.050Z,88.60
2022-09-26T04:17:22.268Z,88.77
2022-09-26T04:19:50.478Z,88.74
2022-09-26T04:22:18.731Z,88.61
2022-09-26T04:24:46.873Z,88.57
2022-09-26T04:27:15.419Z,88.81
2022-09-26T04:29:45.323Z,88.59
2022-09-26T04:32:19.756Z,88.84
2022-09-26T04:35:19.935Z,88.90
2022-09-26T04:37:50.798Z,88.80
2022-09-26T04:40:19.187Z,88.81
2022-09-26T04:42:59.973Z,88.77
2022-09-26T04:45:28.271Z,88.81
2022-09-26T04:47:57.055Z,88.89
2022-09-26T04:50:29.097Z,89.00
2022-09-26T04:53:07.120Z,88.97
2022-09-26T04:55:39.223Z,88.98
2022-09-26T04:58:07.350Z,88.99
2022-09-26T05:00:35.748Z,89.24
2022-09-26T05:03:05.407Z,89.14
2022-09-26T05:05:33.929Z,89.01
2022-09-26T05:08:02.386Z,89.21
2022-09-26T05:10:30.535Z,89.09
2022-09-26T05:13:03.578Z,89.38
2022-09-26T05:15:32.309Z,89.33
2022-09-26T05:18:00.789Z,89.24
2022-09-26T05:20:31.920Z,89.47
2022-09-26T05:23:07.437Z,89.41
2022-09-26T05:25:57.648Z,89.43
2022-09-26T05:28:27.036Z,89.32
2022-09-26T05:30:55.264Z,89.47
2022-09-26T05:33:23.349Z,89.35
2022-09-26T05:35:55.831Z,89.21
2022-09-26T05:38:23.782Z,89.24
2022-09-26T05:40:57.001Z,89.34
2022-09-26T05:43:31.793Z,89.43
2022-09-26T05:46:04.967Z,89.76
2022-09-26T05:48:39.165Z,89.62
2022-09-26T05:51:12.686Z,89.44
2022-09-26T05:53:45.824Z,89.37
2022-09-26T05:56:19.054Z,89.60
2022-09-26T05:59:10.980Z,89.47
2022-09-26T06:01:58.769Z,89.85
2022-09-26T06:04:45.129Z,89.78
2022-09-26T06:07:32.474Z,89.56
2022-09-26T06:10:01.439Z,89.83
2022-09-26T06:12:35.934Z,89.55
2022-09-26T06:15:05.536Z,89.78
2022-09-26T06:17:34.681Z,89.80
2022-09-26T06:20:05.437Z,89.68
2022-09-26T06:22:43.897Z,89.44
2022-09-26T06:25:13.108Z,89.67
2022-09-26T06:27:42.594Z,89.82
2022-09-26T06:30:12.197Z,89.70
2022-09-26T06:32:41.458Z,89.73
2022-09-26T06:35:22.309Z,89.91
2022-09-26T06:38:08.985Z,89.94
2022-09-26T06:40:38.068Z,89.80
2022-09-26T06:43:06.740Z,90.02
2022-09-26T06:46:09.828Z,90.01
2022-09-26T06:49:10.327Z,89.86
2022-09-26T06:51:44.094Z,89.78
2022-09-26T06:54:12.117Z,89.90
2022-09-26T06:56:40.254Z,89.57
2022-09-26T06:59:08.751Z,89.63
2022-09-26T07:01:41.756Z,89.91
2022-09-26T07:04:30.774Z,89.67
2022-09-26T07:07:27.892Z,89.90
2022-09-26T07:09:56.650Z,89.65
2022-09-26T07:12:47.403Z,89.73
2022-09-26T07:15:21.065Z,89.85
2022-09-26T07:17:49.866Z,89.80
2022-09-26T07:20:34.676Z,89.81
2022-09-26T07:23:21.744Z,89.74
2022-09-26T07:25:51.137Z,89.91
2022-09-26T07:28:19.706Z,89.95
2022-09-26T07:30:49.851Z,89.75
2022-09-26T07:33:43.010Z,89.80
2022-09-26T07:36:12.881Z,90.02
2022-09-26T07:38:43.885Z,90.06
2022-09-26T07:41:12.334Z,90.08
2022-09-26T07:44:30.329Z,89.95
2022-09-26T07:46:50.032Z,89.63
2022-09-26T07:49:37.105Z,89.94
2022-09-26T07:52:11.421Z,89.68
2022-09-26T07:55:11.409Z,89.65
2022-09-26T07:57:59.334Z,89.54
2022-09-26T08:00:47.771Z,89.82
2022-09-26T08:03:48.425Z,89.87
2022-09-26T08:06:42.823Z,89.68
2022-09-26T08:09:11.564Z,89.73
2022-09-26T08:11:58.368Z,89.88
2022-09-26T08:14:49.922Z,89.71
2022-09-26T08:17:34.939Z,89.77
2022-09-26T08:20:04.356Z,89.79
2022-09-26T08:22:33.006Z,89.69
2022-09-26T08:25:01.515Z,89.73
2022-09-26T08:28:00.297Z,89.67
2022-09-26T08:30:31.463Z,89.62
2022-09-26T08:33:02.563Z,89.71
2022-09-26T08:35:35.786Z,89.56
2022-09-26T08:38:21.889Z,89.35
2022-09-26T08:41:32.546Z,89.51
2022-09-26T08:44:42.229Z,89.59
2022-09-26T08:47:43.861Z,89.64
2022-09-26T08:51:12.572Z,89.65
2022-09-26T08:54:05.827Z,89.65
2022-09-26T08:56:42.166Z,89.68
2022-09-26T08:59:43.619Z,89.59
2022-09-26T09:02:51.840Z,89.62
2022-09-26T09:05:28.477Z,89.59
2022-09-26T09:07:59.026Z,89.68
2022-09-26T09:10:54.752Z,89.43
2022-09-26T09:13:28.034Z,89.53
2022-09-26T09:16:37.163Z,89.77
2022-09-26T09:19:56.739Z,89.71
2022-09-26T09:23:02.462Z,89.59
2022-09-26T09:27:52.432Z,89.91
2022-09-26T09:29:23.596Z,89.64
2022-09-26T09:32:17.283Z,89.58
2022-09-26T09:35:18.422Z,89.80
2022-09-26T09:38:18.353Z,89.83
2022-09-26T09:41:03.672Z,89.75
2022-09-26T09:43:34.852Z,89.78
2022-09-26T09:46:13.069Z,89.74
2022-09-26T09:48:41.862Z,89.77
2022-09-26T09:51:44.653Z,89.86
2022-09-26T09:54:24.856Z,89.88
2022-09-26T09:56:56.056Z,89.80
2022-09-26T09:59:58.484Z,90.06
2022-09-26T10:03:20.379Z,90.02
2022-09-26T10:05:53.779Z,89.93
2022-09-26T10:08:33.250Z,89.77
2022-09-26T10:11:41.789Z,89.85
2022-09-26T10:14:45.394Z,89.89
2022-09-26T10:17:32.508Z,90.03
2022-09-26T10:20:53.173Z,89.80
2022-09-26T10:23:27.308Z,89.75
2022-09-26T10:26:02.513Z,89.80
2022-09-26T10:28:44.557Z,90.00
2022-09-26T10:31:26.331Z,89.87
2022-09-26T10:34:38.478Z,89.88
2022-09-26T10:37:29.093Z,89.93
2022-09-26T10:40:53.362Z,90.05
2022-09-26T10:43:32.847Z,90.19
2022-09-26T10:46:19.327Z,90.13
2022-09-26T10:49:15.753Z,90.12
2022-09-26T10:52:18.215Z,90.06
2022-09-26T10:55:11.557Z,89.88
2022-09-26T10:57:46.750Z,89.49
2022-09-26T11:00:22.141Z,89.61
2022-09-26T11:02:52.601Z,89.46
2022-09-26T11:05:42.691Z,89.63
2022-09-26T11:08:18.960Z,89.35
2022-09-26T11:11:11.402Z,89.23
2022-09-26T11:14:05.344Z,88.94
2022-09-26T11:16:43.545Z,88.99
2022-09-26T11:19:55.089Z,88.97
2022-09-26T11:22:42.302Z,88.82
2022-09-26T11:25:28.906Z,88.46
2022-09-26T11:28:34.525Z,88.82
2022-09-26T11:31:29.303Z,88.86
2022-09-26T11:34:27.836Z,88.97
2022-09-26T11:37:18.283Z,88.19
2022-09-26T11:40:10.126Z,88.37
2022-09-26T11:42:54.905Z,88.72
2022-09-26T11:45:53.556Z,88.52
2022-09-26T11:49:18.041Z,88.10
2022-09-26T11:52:17.884Z,88.49
2022-09-26T11:54:52.265Z,88.03
2022-09-26T11:57:49.775Z,87.68
2022-09-26T12:00:27.851Z,87.88
2022-09-26T12:03:15.140Z,87.79
2022-09-26T12:06:00.768Z,87.46
2022-09-26T12:08:54.135Z,87.36
2022-09-26T12:11:41.708Z,87.64
2022-09-26T12:14:53.929Z,87.75
2022-09-26T12:17:44.126Z,87.20
2022-09-26T12:20:30.600Z,87.40
2022-09-26T12:23:22.500Z,86.72
2022-09-26T12:25:56.409Z,86.35
2022-09-26T12:28:25.623Z,85.89
2022-09-26T12:30:59.946Z,86.25
2022-09-26T12:33:43.582Z,86.36
2022-09-26T12:36:21.636Z,86.71
2022-09-26T12:38:58.632Z,86.37
2022-09-26T12:41:38.293Z,86.55
2022-09-26T12:44:27.388Z,86.49
2022-09-26T12:47:09.609Z,86.44
2022-09-26T12:49:45.135Z,86.19
2022-09-26T12:52:39.204Z,86.15
2022-09-26T12:55:38.706Z,86.19
2022-09-26T12:58:25.160Z,86.43
2022-09-26T13:01:08.590Z,85.92
2022-09-26T13:03:55.520Z,86.28
2022-09-26T13:07:17.228Z,86.12
2022-09-26T13:10:07.762Z,86.20
2022-09-26T13:12:59.002Z,86.00
2022-09-26T13:15:32.516Z,85.92
2022-09-26T13:18:13.069Z,86.03
2022-09-26T13:20:50.176Z,85.73
2022-09-26T13:23:21.034Z,85.48
2022-09-26T13:25:53.091Z,85.16
2022-09-26T13:28:30.433Z,85.04
2022-09-26T13:31:05.615Z,84.94
2022-09-26T13:33:37.273Z,85.29
2022-09-26T13:36:08.872Z,85.19
2022-09-26T13:38:46.302Z,85.20
2022-09-26T13:41:32.907Z,85.10
2022-09-26T13:44:03.843Z,85.22
2022-09-26T13:47:03.445Z,84.61
2022-09-26T13:50:16.640Z,84.89
2022-09-26T13:53:06.895Z,84.62
2022-09-26T13:55:37.421Z,84.41
2022-09-26T13:58:19.498Z,84.96
2022-09-26T14:00:55.102Z,84.54
2022-09-26T14:03:23.533Z,84.22
2022-09-26T14:06:06.663Z,83.99
2022-09-26T14:08:55.527Z,83.66
2022-09-26T14:11:45.485Z,84.11
2022-09-26T14:14:19.553Z,84.27
2022-09-26T14:16:52.088Z,83.98
2022-09-26T14:19:31.966Z,84.11
2022-09-26T14:22:21.666Z,83.88
2022-09-26T14:24:51.602Z,84.13
2022-09-26T14:27:25.569Z,83.84
2022-09-26T14:30:01.199Z,83.71
2022-09-26T14:32:35.259Z,83.94
2022-09-26T14:35:16.656Z,83.58
2022-09-26T14:37:52.066Z,83.33
2022-09-26T14:40:39.991Z,82.85
2022-09-26T14:43:14.189Z,83.37
2022-09-26T14:45:52.862Z,83.23
2022-09-26T14:48:26.839Z,83.09
2022-09-26T14:51:07.135Z,83.24
2022-09-26T14:53:50.166Z,83.21
2022-09-26T14:56:27.750Z,83.03
2022-09-26T14:59:17.157Z,83.12
2022-09-26T15:01:46.370Z,82.99
2022-09-26T15:04:20.889Z,83.05
2022-09-26T15:06:53.096Z,83.37
2022-09-26T15:09:32.951Z,83.40
2022-09-26T15:12:09.131Z,83.02
2022-09-26T15:15:09.219Z,82.99
2022-09-26T15:17:45.968Z,83.17
2022-09-26T15:20:18.584Z,82.91
2022-09-26T15:22:48.115Z,83.07
2022-09-26T15:25:25.967Z,83.09
2022-09-26T15:27:55.553Z,83.26
2022-09-26T15:30:43.202Z,83.21
2022-09-26T15:33:20.419Z,83.31
2022-09-26T15:35:55.059Z,83.30
2022-09-26T15:38:25.259Z,83.40
2022-09-26T15:41:01.437Z,83.32
2022-09-26T15:43:35.046Z,83.31
2022-09-26T15:46:07.431Z,83.50
2022-09-26T15:48:43.246Z,83.43
2022-09-26T15:51:30.234Z,83.29
2022-09-26T15:54:03.813Z,83.20
2022-09-26T15:56:39.714Z,83.49
2022-09-26T15:59:13.995Z,83.41
2022-09-26T16:01:44.803Z,83.64
2022-09-26T16:04:33.389Z,83.46
2022-09-26T16:07:04.471Z,83.63
2022-09-26T16:09:44.492Z,83.55
2022-09-26T16:12:15.685Z,83.68
2022-09-26T16:15:05.345Z,83.69
2022-09-26T16:17:36.436Z,83.76
2022-09-26T16:20:13.760Z,83.96
2022-09-26T16:22:54.920Z,83.92
2022-09-26T16:25:30.140Z,83.79
2022-09-26T16:28:01.710Z,83.86
2022-09-26T16:30:30.278Z,83.75
2022-09-26T16:33:07.673Z,83.84
2022-09-26T16:35:43.349Z,83.92
2022-09-26T16:38:32.309Z,83.99
2022-09-26T16:41:31.391Z,83.97
2022-09-26T16:44:40.675Z,84.10
2022-09-26T16:47:34.429Z,84.03
2022-09-26T16:50:29.160Z,84.12
2022-09-26T16:52:58.106Z,84.17
2022-09-26T16:55:27.727Z,84.18
2022-09-26T16:57:59.193Z,84.27
2022-09-26T17:00:52.703Z,84.30
2022-09-26T17:03:23.971Z,84.30
2022-09-26T17:05:55.679Z,84.44
2022-09-26T17:08:26.595Z,84.36
2022-09-26T17:10:58.694Z,84.43
2022-09-26T17:13:29.108Z,84.45
2022-09-26T17:16:02.610Z,84.40
2022-09-26T17:18:33.380Z,84.42
2022-09-26T17:21:02.223Z,84.57
2022-09-26T17:23:40.648Z,84.51
2022-09-26T17:26:21.840Z,84.47
2022-09-26T17:28:53.431Z,84.59
2022-09-26T17:31:21.696Z,84.64
2022-09-26T17:33:53.393Z,84.58
2022-09-26T17:36:29.437Z,84.54
2022-09-26T17:39:02.563Z,84.53
2022-09-26T17:41:32.740Z,84.63
2022-09-26T17:44:01.139Z,84.61
2022-09-26T17:46:30.368Z,84.62
2022-09-26T17:48:59.534Z,84.74
2022-09-26T17:51:27.762Z,84.74
2022-09-26T17:53:57.496Z,84.75
2022-09-26T17:56:26.520Z,84.92
2022-09-26T17:58:55.869Z,84.81
2022-09-26T18:01:33.808Z,84.80
2022-09-26T18:04:07.396Z,84.80
2022-09-26T18:06:37.069Z,84.86
2022-09-26T18:09:10.072Z,84.72
2022-09-26T18:11:38.907Z,84.79
2022-09-26T18:14:08.668Z,84.94
2022-09-26T18:16:36.911Z,84.84
2022-09-26T18:19:07.555Z,84.77
2022-09-26T18:21:36.762Z,85.10
2022-09-26T18:24:06.840Z,85.11
2022-09-26T18:26:42.316Z,85.23
2022-09-26T18:29:15.369Z,85.02
2022-09-26T18:31:46.013Z,85.14
2022-09-26T18:34:18.783Z,85.09
2022-09-26T18:36:48.277Z,85.06
2022-09-26T18:39:17.074Z,84.98
2022-09-26T18:41:46.086Z,85.22
2022-09-26T18:44:17.927Z,85.38
2022-09-26T18:46:48.341Z,85.39
2022-09-26T18:49:17.620Z,85.00
2022-09-26T18:51:47.092Z,85.36
2022-09-26T18:54:17.362Z,85.27
2022-09-26T18:57:04.473Z,85.41
2022-09-26T18:59:32.638Z,85.46
2022-09-26T19:02:02.712Z,85.52
2022-09-26T19:04:31.872Z,85.43
2022-09-26T19:07:02.404Z,85.39
2022-09-26T19:09:35.774Z,85.69
2022-09-26T19:12:04.300Z,85.69
2022-09-26T19:14:32.809Z,85.82
2022-09-26T19:17:00.962Z,85.86
2022-09-26T19:19:30.485Z,86.04
2022-09-26T19:22:15.226Z,85.69
2022-09-26T19:25:10.320Z,85.89
2022-09-26T19:27:52.167Z,85.76
2022-09-26T19:30:22.355Z,85.83
2022-09-26T19:32:53.207Z,85.86
2022-09-26T19:35:35.424Z,85.74
2022-09-26T19:38:06.618Z,85.65
2022-09-26T19:40:34.912Z,86.02
2022-09-26T19:43:04.661Z,86.11
2022-09-26T19:45:35.068Z,86.15
2022-09-26T19:48:05.448Z,85.78
2022-09-26T19:50:35.662Z,85.94
2022-09-26T19:53:13.470Z,85.89
2022-09-26T19:55:42.210Z,85.64
2022-09-26T19:58:16.861Z,86.09
2022-09-26T20:00:49.735Z,86.01
2022-09-26T20:03:43.004Z,86.21
2022-09-26T20:06:29.396Z,86.34
2022-09-26T20:09:01.693Z,86.10
2022-09-26T20:11:30.481Z,86.25
2022-09-26T20:14:17.361Z,86.15
2022-09-26T20:16:45.600Z,85.93
2022-09-26T20:19:24.680Z,85.90
2022-09-26T20:21:53.336Z,86.05
2022-09-26T20:24:21.583Z,86.05
2022-09-26T20:26:49.791Z,86.28
2022-09-26T20:29:17.874Z,86.19
2022-09-26T20:31:47.648Z,86.25
2022-09-26T20:34:17.353Z,86.27
2022-09-26T20:36:49.327Z,86.47
2022-09-26T20:39:23.922Z,86.42
2022-09-26T20:41:52.737Z,86.59
2022-09-26T20:44:30.324Z,86.69
2022-09-26T20:47:00.158Z,86.65
2022-09-26T20:49:40.452Z,86.82
2022-09-26T20:52:19.342Z,86.60
2022-09-26T20:54:47.640Z,86.72
2022-09-26T20:57:17.517Z,86.62
2022-09-26T20:59:47.065Z,86.61
2022-09-26T21:02:31.049Z,86.94
2022-09-26T21:05:03.409Z,86.64
2022-09-26T21:07:32.253Z,86.62
2022-09-26T21:10:00.434Z,86.98
2022-09-26T21:12:28.682Z,86.78
2022-09-26T21:14:56.731Z,87.09
2022-09-26T21:17:29.355Z,87.03
2022-09-26T21:19:58.074Z,87.04
2022-09-26T21:22:52.781Z,87.03
2022-09-26T21:25:23.201Z,87.31
2022-09-26T21:27:55.889Z,87.29
2022-09-26T21:30:24.247Z,87.19
2022-09-26T21:32:56.785Z,87.32
2022-09-26T21:35:31.306Z,87.25
2022-09-26T21:38:01.331Z,87.06
2022-09-26T21:40:32.080Z,87.18
2022-09-26T21:43:07.655Z,87.23
2022-09-26T21:45:35.689Z,87.31
2022-09-26T21:48:03.860Z,87.21
2022-09-26T21:50:32.254Z,87.32
2022-09-26T21:53:05.803Z,87.26
2022-09-26T21:55:38.818Z,87.49
2022-09-26T21:58:15.311Z,87.49
2022-09-26T22:00:43.370Z,87.41
2022-09-26T22:03:11.605Z,87.59
2022-09-26T22:05:39.705Z,87.54
2022-09-26T22:08:07.702Z,87.53
2022-09-26T22:10:36.962Z,87.44
2022-09-26T22:13:05.595Z,87.49
2022-09-26T22:15:33.681Z,87.61
2022-09-26T22:18:02.127Z,87.56
2022-09-26T22:20:30.361Z,87.45
2022-09-26T22:22:58.434Z,87.38
2022-09-26T22:25:26.612Z,87.43
2022-09-26T22:27:54.636Z,87.47
2022-09-26T22:30:22.816Z,87.46
2022-09-26T22:32:50.958Z,87.42
2022-09-26T22:35:19.020Z,87.63
2022-09-26T22:37:47.341Z,87.63
2022-09-26T22:40:15.453Z,87.56
2022-09-26T22:42:43.588Z,87.58
2022-09-26T22:45:11.630Z,87.79
2022-09-26T22:47:39.773Z,87.80
2022-09-26T22:50:08.275Z,87.71
2022-09-26T22:52:36.417Z,87.79
2022-09-26T22:55:05.008Z,87.66
2022-09-26T22:57:33.170Z,87.80
2022-09-26T23:00:02.028Z,87.73
2022-09-26T23:02:30.160Z,87.71
2022-09-26T23:04:58.273Z,87.89
2022-09-26T23:07:26.368Z,87.73
2022-09-26T23:09:54.527Z,87.81
2022-09-26T23:12:22.683Z,87.80
2022-09-26T23:14:50.702Z,87.87
2022-09-26T23:17:18.763Z,88.00
2022-09-26T23:19:46.953Z,87.85
2022-09-26T23:22:15.685Z,87.90
2022-09-26T23:24:43.796Z,87.80
2022-09-26T23:27:11.824Z,87.88
2022-09-26T23:29:40.386Z,87.91
2022-09-26T23:32:08.531Z,87.96
2022-09-26T23:34:36.593Z,87.97
2022-09-26T23:37:04.654Z,87.96
2022-09-26T23:39:32.783Z,88.01
2022-09-26T23:42:00.891Z,88.03
2022-09-26T23:44:28.944Z,88.08
2022-09-26T23:47:00.132Z,88.12
2022-09-26T23:49:29.001Z,88.13
2022-09-26T23:51:56.993Z,88.12
2022-09-26T23:54:25.055Z,88.13
2022-09-26T23:56:53.203Z,88.13
2022-09-26T23:59:21.311Z,88.18
